sensor_id;sensor_type;location;lat;lon;timestamp;P1;durP1;ratioP1;P2;durP2;ratioP2
43682;SDS011;29285;52.128;21.060;2022-12-01T08:01:04;17.42;;;11.08;;
43682;SDS011;29285;52.128;21.060;2022-12-01T08:06:07;17.17;;;12.10;;
43682;SDS011;29285;52.128;21.060;2022-12-01T08:11:15;18.37;;;12.85;;
43682;SDS011;29285;52.128;21.060;2022-12-01T08:16:19;17.65;;;10.88;;
43682;SDS011;29285;52.128;21.060;2022-12-01T08:21:22;16.90;;;10.58;;
43682;SDS011;29285;52.128;21.060;2022-12-01T08:26:24;18.90;;;11.85;;
43682;SDS011;29285;52.128;21.060;2022-12-01T08:31:28;18.40;;;11.97;;
43682;SDS011;29285;52.128;21.060;2022-12-01T08:36:32;16.27;;;12.33;;
43682;SDS011;29285;52.128;21.060;2022-12-01T08:41:35;16.70;;;11.33;;
43682;SDS011;29285;52.128;21.060;2022-12-01T08:46:36;21.12;;;12.98;;
43682;SDS011;29285;52.128;21.060;2022-12-01T08:51:38;22.95;;;14.60;;
43682;SDS011;29285;52.128;21.060;2022-12-01T08:56:40;23.00;;;14.18;;
43682;SDS011;29285;52.128;21.060;2022-12-01T09:01:44;19.62;;;14.33;;
43682;SDS011;29285;52.128;21.060;2022-12-01T09:06:52;20.70;;;13.75;;
43682;SDS011;29285;52.128;21.060;2022-12-01T09:16:57;23.50;;;14.15;;
43682;SDS011;29285;52.128;21.060;2022-12-01T09:21:58;22.13;;;14.70;;
43682;SDS011;29285;52.128;21.060;2022-12-01T09:27:01;23.05;;;13.95;;
43682;SDS011;29285;52.128;21.060;2022-12-01T09:32:03;23.60;;;15.03;;
43682;SDS011;29285;52.128;21.060;2022-12-01T09:37:04;20.95;;;14.25;;
43682;SDS011;29285;52.128;21.060;2022-12-01T09:42:10;24.77;;;15.58;;
43682;SDS011;29285;52.128;21.060;2022-12-01T09:47:22;18.10;;;12.10;;
43682;SDS011;29285;52.128;21.060;2022-12-01T09:52:33;26.90;;;16.10;;
43682;SDS011;29285;52.128;21.060;2022-12-01T09:57:42;26.90;;;16.67;;
43682;SDS011;29285;52.128;21.060;2022-12-01T10:03:49;33.92;;;17.00;;
43682;SDS011;29285;52.128;21.060;2022-12-01T10:08:22;25.25;;;15.43;;
43682;SDS011;29285;52.128;21.060;2022-12-01T10:13:27;30.85;;;17.92;;
43682;SDS011;29285;52.128;21.060;2022-12-01T10:24:15;37.35;;;19.35;;
43682;SDS011;29285;52.128;21.060;2022-12-01T10:29:36;23.55;;;16.97;;
43682;SDS011;29285;52.128;21.060;2022-12-01T10:34:51;23.50;;;15.00;;
43682;SDS011;29285;52.128;21.060;2022-12-01T10:39:53;24.45;;;16.62;;
43682;SDS011;29285;52.128;21.060;2022-12-01T10:44:58;28.43;;;17.37;;
43682;SDS011;29285;52.128;21.060;2022-12-01T10:50:03;30.05;;;17.95;;
43682;SDS011;29285;52.128;21.060;2022-12-01T11:00:39;31.82;;;17.32;;
43682;SDS011;29285;52.128;21.060;2022-12-01T11:05:44;31.87;;;18.12;;
43682;SDS011;29285;52.128;21.060;2022-12-01T11:10:52;33.00;;;17.10;;
43682;SDS011;29285;52.128;21.060;2022-12-01T11:15:55;31.80;;;18.20;;
43682;SDS011;29285;52.128;21.060;2022-12-01T11:21:09;30.08;;;18.10;;
43682;SDS011;29285;52.128;21.060;2022-12-01T11:26:27;30.45;;;18.30;;
43682;SDS011;29285;52.128;21.060;2022-12-01T11:31:41;30.43;;;17.65;;
43682;SDS011;29285;52.128;21.060;2022-12-01T11:36:50;33.53;;;18.25;;
43682;SDS011;29285;52.128;21.060;2022-12-01T11:42:06;34.90;;;19.57;;
43682;SDS011;29285;52.128;21.060;2022-12-01T11:47:18;39.65;;;17.77;;
43682;SDS011;29285;52.128;21.060;2022-12-01T11:52:25;38.23;;;19.37;;
43682;SDS011;29285;52.128;21.060;2022-12-01T11:57:32;33.38;;;19.10;;
43682;SDS011;29285;52.128;21.060;2022-12-01T12:02:39;37.48;;;20.95;;
43682;SDS011;29285;52.128;21.060;2022-12-01T12:30:38;45.80;;;21.80;;
43682;SDS011;29285;52.128;21.060;2022-12-01T12:35:49;44.98;;;22.62;;
43682;SDS011;29285;52.128;21.060;2022-12-01T12:41:22;36.68;;;18.27;;
43682;SDS011;29285;52.128;21.060;2022-12-01T12:46:59;27.85;;;16.25;;
43682;SDS011;29285;52.128;21.060;2022-12-01T12:52:11;23.05;;;13.68;;
43682;SDS011;29285;52.128;21.060;2022-12-01T13:02:38;22.48;;;12.47;;
43682;SDS011;29285;52.128;21.060;2022-12-01T13:08:01;17.40;;;10.03;;
43682;SDS011;29285;52.128;21.060;2022-12-01T13:24:00;15.95;;;10.08;;
43682;SDS011;29285;52.128;21.060;2022-12-01T13:34:14;11.25;;;7.92;;
43682;SDS011;29285;52.128;21.060;2022-12-01T13:39:23;10.80;;;7.12;;
43682;SDS011;29285;52.128;21.060;2022-12-01T13:44:29;17.95;;;11.12;;
43682;SDS011;29285;52.128;21.060;2022-12-01T13:49:48;12.45;;;7.72;;
43682;SDS011;29285;52.128;21.060;2022-12-01T14:00:27;12.60;;;7.30;;
43682;SDS011;29285;52.128;21.060;2022-12-01T14:10:58;9.60;;;6.30;;
43682;SDS011;29285;52.128;21.060;2022-12-01T14:16:07;7.95;;;6.15;;
43682;SDS011;29285;52.128;21.060;2022-12-01T14:21:10;16.27;;;8.30;;
43682;SDS011;29285;52.128;21.060;2022-12-01T14:26:15;11.43;;;7.50;;
43682;SDS011;29285;52.128;21.060;2022-12-01T14:31:22;8.28;;;6.87;;
43682;SDS011;29285;52.128;21.060;2022-12-01T14:41:48;10.38;;;7.03;;
43682;SDS011;29285;52.128;21.060;2022-12-01T14:57:47;17.12;;;10.38;;
43682;SDS011;29285;52.128;21.060;2022-12-01T15:02:54;13.60;;;9.40;;
43682;SDS011;29285;52.128;21.060;2022-12-01T15:08:00;13.00;;;9.45;;
43682;SDS011;29285;52.128;21.060;2022-12-01T15:13:18;15.98;;;9.53;;
43682;SDS011;29285;52.128;21.060;2022-12-01T15:18:28;14.45;;;9.83;;
43682;SDS011;29285;52.128;21.060;2022-12-01T15:23:32;13.58;;;9.85;;
43682;SDS011;29285;52.128;21.060;2022-12-01T15:28:35;14.53;;;10.15;;
43682;SDS011;29285;52.128;21.060;2022-12-01T15:33:36;12.82;;;9.85;;
43682;SDS011;29285;52.128;21.060;2022-12-01T15:38:48;14.50;;;10.53;;
43682;SDS011;29285;52.128;21.060;2022-12-01T15:43:58;15.98;;;10.68;;
43682;SDS011;29285;52.128;21.060;2022-12-01T15:49:05;20.82;;;13.95;;
43682;SDS011;29285;52.128;21.060;2022-12-01T15:54:14;19.50;;;13.13;;
43682;SDS011;29285;52.128;21.060;2022-12-01T15:59:25;22.02;;;15.30;;
43682;SDS011;29285;52.128;21.060;2022-12-01T16:04:31;21.02;;;15.55;;
43682;SDS011;29285;52.128;21.060;2022-12-01T16:14:54;22.25;;;15.05;;
43682;SDS011;29285;52.128;21.060;2022-12-01T16:20:23;21.27;;;15.68;;
43682;SDS011;29285;52.128;21.060;2022-12-01T16:30:41;20.62;;;14.15;;
43682;SDS011;29285;52.128;21.060;2022-12-01T16:35:43;20.80;;;14.38;;
43682;SDS011;29285;52.128;21.060;2022-12-01T16:40:45;21.80;;;14.60;;
43682;SDS011;29285;52.128;21.060;2022-12-01T16:45:50;20.40;;;13.80;;
43682;SDS011;29285;52.128;21.060;2022-12-01T16:51:01;21.85;;;13.45;;
43682;SDS011;29285;52.128;21.060;2022-12-01T16:56:08;20.37;;;13.35;;
43682;SDS011;29285;52.128;21.060;2022-12-01T17:01:14;19.92;;;13.50;;
43682;SDS011;29285;52.128;21.060;2022-12-01T17:06:16;21.52;;;12.63;;
43682;SDS011;29285;52.128;21.060;2022-12-01T17:11:18;19.73;;;13.58;;
43682;SDS011;29285;52.128;21.060;2022-12-01T17:16:20;19.87;;;13.18;;
43682;SDS011;29285;52.128;21.060;2022-12-01T17:21:21;20.00;;;12.25;;
43682;SDS011;29285;52.128;21.060;2022-12-01T17:26:23;19.98;;;13.28;;
43682;SDS011;29285;52.128;21.060;2022-12-01T17:31:24;19.32;;;13.60;;
43682;SDS011;29285;52.128;21.060;2022-12-01T17:36:26;25.02;;;15.53;;
43682;SDS011;29285;52.128;21.060;2022-12-01T17:41:27;23.05;;;15.20;;
43682;SDS011;29285;52.128;21.060;2022-12-01T17:46:31;24.63;;;15.95;;
43682;SDS011;29285;52.128;21.060;2022-12-01T17:51:32;25.60;;;14.75;;
43682;SDS011;29285;52.128;21.060;2022-12-01T17:56:33;24.90;;;15.20;;
43682;SDS011;29285;52.128;21.060;2022-12-01T18:01:35;23.90;;;15.32;;
43682;SDS011;29285;52.128;21.060;2022-12-01T18:06:37;25.45;;;15.35;;
43682;SDS011;29285;52.128;21.060;2022-12-01T18:11:38;24.52;;;16.32;;
43682;SDS011;29285;52.128;21.060;2022-12-01T18:16:39;20.70;;;13.62;;
43682;SDS011;29285;52.128;21.060;2022-12-01T18:21:40;19.02;;;12.80;;
43682;SDS011;29285;52.128;21.060;2022-12-01T18:26:42;20.25;;;14.50;;
43682;SDS011;29285;52.128;21.060;2022-12-01T18:31:43;17.62;;;11.88;;
43682;SDS011;29285;52.128;21.060;2022-12-01T18:36:45;18.20;;;12.95;;
43682;SDS011;29285;52.128;21.060;2022-12-01T18:41:46;18.10;;;11.60;;
43682;SDS011;29285;52.128;21.060;2022-12-01T18:46:48;19.90;;;14.18;;
43682;SDS011;29285;52.128;21.060;2022-12-01T18:51:49;19.05;;;12.53;;
43682;SDS011;29285;52.128;21.060;2022-12-01T18:56:51;23.95;;;15.48;;
43682;SDS011;29285;52.128;21.060;2022-12-01T19:01:54;25.07;;;15.37;;
43682;SDS011;29285;52.128;21.060;2022-12-01T19:06:55;20.30;;;12.95;;
43682;SDS011;29285;52.128;21.060;2022-12-01T19:11:56;22.35;;;11.88;;
43682;SDS011;29285;52.128;21.060;2022-12-01T19:16:59;21.90;;;12.47;;
43682;SDS011;29285;52.128;21.060;2022-12-01T19:22:01;17.30;;;10.93;;
43682;SDS011;29285;52.128;21.060;2022-12-01T19:27:02;17.95;;;11.65;;
43682;SDS011;29285;52.128;21.060;2022-12-01T19:32:04;17.60;;;11.22;;
43682;SDS011;29285;52.128;21.060;2022-12-01T19:37:05;16.17;;;11.22;;
43682;SDS011;29285;52.128;21.060;2022-12-01T19:42:06;17.85;;;13.18;;
43682;SDS011;29285;52.128;21.060;2022-12-01T19:47:08;17.75;;;12.25;;
43682;SDS011;29285;52.128;21.060;2022-12-01T19:52:09;16.10;;;11.93;;
43682;SDS011;29285;52.128;21.060;2022-12-01T19:57:11;17.45;;;11.45;;
43682;SDS011;29285;52.128;21.060;2022-12-01T20:02:12;21.80;;;13.18;;
43682;SDS011;29285;52.128;21.060;2022-12-01T20:07:14;19.45;;;13.32;;
43682;SDS011;29285;52.128;21.060;2022-12-01T20:12:15;19.67;;;12.82;;
43682;SDS011;29285;52.128;21.060;2022-12-01T20:17:17;15.30;;;10.50;;
43682;SDS011;29285;52.128;21.060;2022-12-01T20:22:18;17.87;;;11.83;;
43682;SDS011;29285;52.128;21.060;2022-12-01T20:27:19;18.30;;;11.93;;
43682;SDS011;29285;52.128;21.060;2022-12-01T20:32:21;18.87;;;12.28;;
43682;SDS011;29285;52.128;21.060;2022-12-01T20:37:22;20.68;;;12.73;;
43682;SDS011;29285;52.128;21.060;2022-12-01T20:42:23;21.82;;;12.75;;
43682;SDS011;29285;52.128;21.060;2022-12-01T20:47:25;20.25;;;13.40;;
43682;SDS011;29285;52.128;21.060;2022-12-01T20:52:26;20.57;;;13.18;;
43682;SDS011;29285;52.128;21.060;2022-12-01T20:57:27;19.20;;;11.38;;
43682;SDS011;29285;52.128;21.060;2022-12-01T21:02:28;22.25;;;13.18;;
43682;SDS011;29285;52.128;21.060;2022-12-01T21:07:30;18.02;;;11.40;;
43682;SDS011;29285;52.128;21.060;2022-12-01T21:12:31;23.38;;;15.03;;
43682;SDS011;29285;52.128;21.060;2022-12-01T21:18:20;21.40;;;14.03;;
43682;SDS011;29285;52.128;21.060;2022-12-01T21:23:17;19.30;;;13.38;;
43682;SDS011;29285;52.128;21.060;2022-12-01T21:28:20;21.62;;;14.18;;
43682;SDS011;29285;52.128;21.060;2022-12-01T21:33:32;23.10;;;13.48;;
43682;SDS011;29285;52.128;21.060;2022-12-01T21:38:32;19.52;;;13.38;;
43682;SDS011;29285;52.128;21.060;2022-12-01T21:43:33;19.67;;;11.73;;
43682;SDS011;29285;52.128;21.060;2022-12-01T21:48:35;21.40;;;14.13;;
43682;SDS011;29285;52.128;21.060;2022-12-01T21:53:37;20.12;;;12.45;;
43682;SDS011;29285;52.128;21.060;2022-12-01T21:58:38;21.40;;;13.38;;
43682;SDS011;29285;52.128;21.060;2022-12-01T22:03:43;24.65;;;15.05;;
43682;SDS011;29285;52.128;21.060;2022-12-01T22:08:47;19.30;;;12.88;;
43682;SDS011;29285;52.128;21.060;2022-12-01T22:24:44;21.73;;;12.23;;
43682;SDS011;29285;52.128;21.060;2022-12-01T22:29:50;18.87;;;10.78;;
43682;SDS011;29285;52.128;21.060;2022-12-01T22:34:55;19.37;;;12.37;;
43682;SDS011;29285;52.128;21.060;2022-12-01T22:40:59;16.40;;;11.50;;
43682;SDS011;29285;52.128;21.060;2022-12-01T22:51:27;19.10;;;13.85;;
43682;SDS011;29285;52.128;21.060;2022-12-01T22:56:43;15.85;;;11.28;;
43682;SDS011;29285;52.128;21.060;2022-12-01T23:01:50;18.80;;;11.08;;
43682;SDS011;29285;52.128;21.060;2022-12-01T23:06:58;15.40;;;10.25;;
43682;SDS011;29285;52.128;21.060;2022-12-01T23:17:29;16.02;;;11.08;;
43682;SDS011;29285;52.128;21.060;2022-12-01T23:22:34;15.90;;;10.38;;
43682;SDS011;29285;52.128;21.060;2022-12-01T23:27:38;15.88;;;10.78;;
43682;SDS011;29285;52.128;21.060;2022-12-01T23:32:40;15.58;;;10.60;;
43682;SDS011;29285;52.128;21.060;2022-12-01T23:37:42;17.60;;;11.55;;
43682;SDS011;29285;52.128;21.060;2022-12-01T23:42:46;15.88;;;9.40;;
43682;SDS011;29285;52.128;21.060;2022-12-01T23:47:48;17.92;;;10.40;;
43682;SDS011;29285;52.128;21.060;2022-12-01T23:52:51;14.23;;;9.53;;
43682;SDS011;29285;52.128;21.060;2022-12-01T23:57:53;15.43;;;10.13;;
